sensor_id;sensor_type;location;lat;lon;timestamp;pressure;altitude;pressure_sealevel;temperature;humidity
67517;BME280;54359;59.124;37.910;2023-02-01T00:00:32;97992.59;;;-0.38;85.36
67517;BME280;54359;59.124;37.910;2023-02-01T00:03:00;97998.47;;;-0.37;85.18
67517;BME280;54359;59.124;37.910;2023-02-01T00:05:26;97996.00;;;-0.36;85.05
67517;BME280;54359;59.124;37.910;2023-02-01T00:07:52;98004.44;;;-0.34;85.29
67517;BME280;54359;59.124;37.910;2023-02-01T00:10:18;98012.03;;;-0.34;85.20
67517;BME280;54359;59.124;37.910;2023-02-01T00:12:45;98011.97;;;-0.35;85.33
67517;BME280;54359;59.124;37.910;2023-02-01T00:15:12;98011.22;;;-0.33;85.41
67517;BME280;54359;59.124;37.910;2023-02-01T00:17:40;98014.63;;;-0.31;85.29
67517;BME280;54359;59.124;37.910;2023-02-01T00:20:06;98012.88;;;-0.33;85.14
67517;BME280;54359;59.124;37.910;2023-02-01T00:22:37;97991.66;;;-0.43;85.10
67517;BME280;54359;59.124;37.910;2023-02-01T00:25:04;98010.28;;;-0.36;84.96
67517;BME280;54359;59.124;37.910;2023-02-01T00:27:29;98012.78;;;-0.38;85.46
67517;BME280;54359;59.124;37.910;2023-02-01T00:29:55;98018.72;;;-0.36;85.32
67517;BME280;54359;59.124;37.910;2023-02-01T00:32:21;98011.84;;;-0.43;85.23
67517;BME280;54359;59.124;37.910;2023-02-01T00:34:51;98019.41;;;-0.42;85.22
67517;BME280;54359;59.124;37.910;2023-02-01T00:37:19;98037.22;;;-0.35;85.15
67517;BME280;54359;59.124;37.910;2023-02-01T00:39:45;98026.09;;;-0.44;85.19
67517;BME280;54359;59.124;37.910;2023-02-01T00:42:10;98023.66;;;-0.41;85.36
67517;BME280;54359;59.124;37.910;2023-02-01T00:44:38;98036.28;;;-0.41;85.10
67517;BME280;54359;59.124;37.910;2023-02-01T00:47:04;98029.56;;;-0.40;85.30
67517;BME280;54359;59.124;37.910;2023-02-01T00:49:30;98014.94;;;-0.55;85.50
67517;BME280;54359;59.124;37.910;2023-02-01T00:51:55;98038.72;;;-0.44;85.59
67517;BME280;54359;59.124;37.910;2023-02-01T00:54:21;98043.81;;;-0.42;85.15
67517;BME280;54359;59.124;37.910;2023-02-01T00:56:48;98033.63;;;-0.47;85.17
67517;BME280;54359;59.124;37.910;2023-02-01T00:59:14;98038.69;;;-0.47;85.06
67517;BME280;54359;59.124;37.910;2023-02-01T01:01:41;98046.31;;;-0.44;85.14
67517;BME280;54359;59.124;37.910;2023-02-01T01:04:08;98019.19;;;-0.52;85.39
67517;BME280;54359;59.124;37.910;2023-02-01T01:06:34;98035.31;;;-0.47;85.04
67517;BME280;54359;59.124;37.910;2023-02-01T01:09:05;98042.00;;;-0.49;85.06
67517;BME280;54359;59.124;37.910;2023-02-01T01:11:37;98025.09;;;-0.52;84.92
67517;BME280;54359;59.124;37.910;2023-02-01T01:14:06;98028.25;;;-0.61;85.31
67517;BME280;54359;59.124;37.910;2023-02-01T01:16:34;98038.44;;;-0.56;85.08
67517;BME280;54359;59.124;37.910;2023-02-01T01:19:01;98029.84;;;-0.66;84.90
67517;BME280;54359;59.124;37.910;2023-02-01T01:21:29;98045.13;;;-0.59;85.02
67517;BME280;54359;59.124;37.910;2023-02-01T01:23:55;98041.72;;;-0.60;85.11
67517;BME280;54359;59.124;37.910;2023-02-01T01:26:27;98044.22;;;-0.62;85.16
67517;BME280;54359;59.124;37.910;2023-02-01T01:28:58;98050.16;;;-0.59;84.97
67517;BME280;54359;59.124;37.910;2023-02-01T01:31:26;98044.25;;;-0.60;85.17
67517;BME280;54359;59.124;37.910;2023-02-01T01:33:54;98035.63;;;-0.68;85.06
67517;BME280;54359;59.124;37.910;2023-02-01T01:36:22;98056.16;;;-0.54;85.17
67517;BME280;54359;59.124;37.910;2023-02-01T01:38:48;98041.72;;;-0.62;85.18
67517;BME280;54359;59.124;37.910;2023-02-01T01:41:21;98058.72;;;-0.53;84.91
67517;BME280;54359;59.124;37.910;2023-02-01T01:47:18;98051.91;;;-0.57;85.08
67517;BME280;54359;59.124;37.910;2023-02-01T01:49:43;98059.53;;;-0.54;84.87
67517;BME280;54359;59.124;37.910;2023-02-01T01:52:10;98072.09;;;-0.57;84.84
67517;BME280;54359;59.124;37.910;2023-02-01T01:54:41;98068.72;;;-0.57;84.75
67517;BME280;54359;59.124;37.910;2023-02-01T01:57:14;98058.47;;;-0.64;84.99
67517;BME280;54359;59.124;37.910;2023-02-01T01:59:50;98063.59;;;-0.61;84.93
67517;BME280;54359;59.124;37.910;2023-02-01T02:02:20;98056.75;;;-0.65;84.79
67517;BME280;54359;59.124;37.910;2023-02-01T02:04:47;98062.75;;;-0.61;84.98
67517;BME280;54359;59.124;37.910;2023-02-01T02:07:17;98072.03;;;-0.58;84.91
67517;BME280;54359;59.124;37.910;2023-02-01T02:09:48;98066.91;;;-0.63;84.93
67517;BME280;54359;59.124;37.910;2023-02-01T02:12:14;98067.00;;;-0.58;85.01
67517;BME280;54359;59.124;37.910;2023-02-01T02:14:40;98067.69;;;-0.64;85.03
67517;BME280;54359;59.124;37.910;2023-02-01T02:25:55;98071.94;;;-0.63;84.76
67517;BME280;54359;59.124;37.910;2023-02-01T02:34:29;98082.69;;;-0.70;84.72
67517;BME280;54359;59.124;37.910;2023-02-01T02:43:20;98088.50;;;-0.73;84.45
67517;BME280;54359;59.124;37.910;2023-02-01T02:49:38;98084.16;;;-0.80;84.53
67517;BME280;54359;59.124;37.910;2023-02-01T02:52:13;98097.06;;;-0.68;84.65
67517;BME280;54359;59.124;37.910;2023-02-01T02:54:59;98096.19;;;-0.70;84.68
67517;BME280;54359;59.124;37.910;2023-02-01T02:57:30;98090.16;;;-0.75;84.51
67517;BME280;54359;59.124;37.910;2023-02-01T03:00:23;98087.63;;;-0.75;84.52
67517;BME280;54359;59.124;37.910;2023-02-01T03:03:16;98109.69;;;-0.68;84.48
67517;BME280;54359;59.124;37.910;2023-02-01T03:06:00;98109.53;;;-0.72;84.81
67517;BME280;54359;59.124;37.910;2023-02-01T03:08:29;98107.81;;;-0.75;84.72
67517;BME280;54359;59.124;37.910;2023-02-01T03:11:06;98115.47;;;-0.72;84.47
67517;BME280;54359;59.124;37.910;2023-02-01T03:19:45;98123.78;;;-0.76;84.48
67517;BME280;54359;59.124;37.910;2023-02-01T03:22:20;98121.00;;;-0.85;84.30
67517;BME280;54359;59.124;37.910;2023-02-01T03:24:52;98143.00;;;-0.79;84.55
67517;BME280;54359;59.124;37.910;2023-02-01T03:30:02;98131.19;;;-0.81;84.35
67517;BME280;54359;59.124;37.910;2023-02-01T03:32:33;98136.25;;;-0.81;84.62
67517;BME280;54359;59.124;37.910;2023-02-01T03:35:28;98136.13;;;-0.85;84.35
67517;BME280;54359;59.124;37.910;2023-02-01T03:41:13;98159.88;;;-0.77;84.59
67517;BME280;54359;59.124;37.910;2023-02-01T03:43:54;98155.63;;;-0.79;84.75
67517;BME280;54359;59.124;37.910;2023-02-01T03:46:33;98165.75;;;-0.78;84.82
67517;BME280;54359;59.124;37.910;2023-02-01T03:49:06;98160.72;;;-0.78;84.48
67517;BME280;54359;59.124;37.910;2023-02-01T03:51:38;98161.50;;;-0.79;84.71
67517;BME280;54359;59.124;37.910;2023-02-01T03:54:12;98171.69;;;-0.76;84.04
67517;BME280;54359;59.124;37.910;2023-02-01T03:56:42;98175.06;;;-0.75;84.85
67517;BME280;54359;59.124;37.910;2023-02-01T03:59:10;98181.94;;;-0.70;84.65
67517;BME280;54359;59.124;37.910;2023-02-01T04:01:40;98181.91;;;-0.71;84.51
67517;BME280;54359;59.124;37.910;2023-02-01T04:04:06;98180.97;;;-0.75;84.51
67517;BME280;54359;59.124;37.910;2023-02-01T04:06:32;98197.09;;;-0.68;84.78
67517;BME280;54359;59.124;37.910;2023-02-01T04:09:01;98185.28;;;-0.71;84.39
67517;BME280;54359;59.124;37.910;2023-02-01T04:11:28;98190.25;;;-0.74;84.65
67517;BME280;54359;59.124;37.910;2023-02-01T04:13:54;98184.16;;;-0.81;84.71
67517;BME280;54359;59.124;37.910;2023-02-01T04:16:21;98196.19;;;-0.72;84.45
67517;BME280;54359;59.124;37.910;2023-02-01T04:18:51;98178.22;;;-0.84;84.64
67517;BME280;54359;59.124;37.910;2023-02-01T04:21:17;98202.09;;;-0.71;84.66
67517;BME280;54359;59.124;37.910;2023-02-01T04:23:42;98203.81;;;-0.69;84.53
67517;BME280;54359;59.124;37.910;2023-02-01T04:26:10;98205.47;;;-0.71;84.62
67517;BME280;54359;59.124;37.910;2023-02-01T04:28:37;98219.75;;;-0.71;84.41
67517;BME280;54359;59.124;37.910;2023-02-01T04:31:03;98200.94;;;-0.83;84.87
67517;BME280;54359;59.124;37.910;2023-02-01T04:33:30;98223.91;;;-0.73;84.42
67517;BME280;54359;59.124;37.910;2023-02-01T04:35:59;98221.41;;;-0.72;84.39
67517;BME280;54359;59.124;37.910;2023-02-01T04:38:34;98224.69;;;-0.76;84.66
67517;BME280;54359;59.124;37.910;2023-02-01T04:41:05;98227.19;;;-0.76;84.61
67517;BME280;54359;59.124;37.910;2023-02-01T04:43:35;98217.84;;;-0.78;84.37
67517;BME280;54359;59.124;37.910;2023-02-01T04:46:04;98211.84;;;-0.84;84.29
67517;BME280;54359;59.124;37.910;2023-02-01T04:48:33;98228.03;;;-0.75;84.36
67517;BME280;54359;59.124;37.910;2023-02-01T04:51:00;98227.00;;;-0.84;84.15
67517;BME280;54359;59.124;37.910;2023-02-01T04:53:27;98237.25;;;-0.77;84.28
67517;BME280;54359;59.124;37.910;2023-02-01T04:56:00;98240.56;;;-0.78;84.62
67517;BME280;54359;59.124;37.910;2023-02-01T04:58:27;98233.81;;;-0.79;84.42
67517;BME280;54359;59.124;37.910;2023-02-01T05:00:54;98220.78;;;-0.95;84.70
67517;BME280;54359;59.124;37.910;2023-02-01T05:03:23;98240.94;;;-0.95;83.91
67517;BME280;54359;59.124;37.910;2023-02-01T05:05:49;98242.47;;;-1.02;84.14
67517;BME280;54359;59.124;37.910;2023-02-01T05:08:15;98240.59;;;-1.09;84.38
67517;BME280;54359;59.124;37.910;2023-02-01T05:10:44;98243.91;;;-1.10;84.45
67517;BME280;54359;59.124;37.910;2023-02-01T05:13:11;98249.72;;;-1.12;84.56
67517;BME280;54359;59.124;37.910;2023-02-01T05:15:55;98248.91;;;-1.11;84.79
67517;BME280;54359;59.124;37.910;2023-02-01T05:18:21;98254.94;;;-1.06;84.78
67517;BME280;54359;59.124;37.910;2023-02-01T05:20:49;98234.53;;;-1.14;84.78
67517;BME280;54359;59.124;37.910;2023-02-01T05:23:41;98260.94;;;-1.03;84.76
67517;BME280;54359;59.124;37.910;2023-02-01T05:26:25;98254.34;;;-0.97;84.59
67517;BME280;54359;59.124;37.910;2023-02-01T05:28:53;98253.28;;;-1.06;84.64
67517;BME280;54359;59.124;37.910;2023-02-01T05:31:20;98267.84;;;-0.95;84.41
67517;BME280;54359;59.124;37.910;2023-02-01T05:33:46;98277.22;;;-0.91;84.68
67517;BME280;54359;59.124;37.910;2023-02-01T05:36:12;98259.34;;;-0.99;84.16
67517;BME280;54359;59.124;37.910;2023-02-01T05:38:40;98277.31;;;-0.88;84.55
67517;BME280;54359;59.124;37.910;2023-02-01T05:41:07;98274.63;;;-0.93;84.48
67517;BME280;54359;59.124;37.910;2023-02-01T05:43:36;98289.19;;;-0.84;84.79
67517;BME280;54359;59.124;37.910;2023-02-01T05:46:03;98276.38;;;-0.92;84.69
67517;BME280;54359;59.124;37.910;2023-02-01T05:48:31;98282.19;;;-0.93;84.43
67517;BME280;54359;59.124;37.910;2023-02-01T05:50:56;98285.78;;;-0.86;84.78
67517;BME280;54359;59.124;37.910;2023-02-01T05:53:22;98300.97;;;-0.83;84.69
67517;BME280;54359;59.124;37.910;2023-02-01T05:55:48;98297.63;;;-0.84;84.63
67517;BME280;54359;59.124;37.910;2023-02-01T05:58:14;98291.50;;;-0.92;84.99
67517;BME280;54359;59.124;37.910;2023-02-01T06:00:40;98302.72;;;-0.82;84.80
67517;BME280;54359;59.124;37.910;2023-02-01T06:03:10;98298.47;;;-0.83;84.50
67517;BME280;54359;59.124;37.910;2023-02-01T06:05:47;98319.75;;;-0.73;84.68
67517;BME280;54359;59.124;37.910;2023-02-01T06:08:13;98320.66;;;-0.71;84.64
67517;BME280;54359;59.124;37.910;2023-02-01T06:10:41;98313.72;;;-0.78;84.52
67517;BME280;54359;59.124;37.910;2023-02-01T06:13:07;98319.22;;;-0.63;84.74
67517;BME280;54359;59.124;37.910;2023-02-01T06:15:34;98328.53;;;-0.61;84.63
67517;BME280;54359;59.124;37.910;2023-02-01T06:17:59;98331.88;;;-0.62;84.63
67517;BME280;54359;59.124;37.910;2023-02-01T06:20:26;98331.91;;;-0.60;84.60
67517;BME280;54359;59.124;37.910;2023-02-01T06:22:57;98337.94;;;-0.55;84.55
67517;BME280;54359;59.124;37.910;2023-02-01T06:25:28;98338.97;;;-0.48;84.78
67517;BME280;54359;59.124;37.910;2023-02-01T06:27:54;98316.81;;;-0.58;84.64
67517;BME280;54359;59.124;37.910;2023-02-01T06:30:20;98341.59;;;-0.45;84.21
67517;BME280;54359;59.124;37.910;2023-02-01T06:32:50;98349.31;;;-0.39;84.61
67517;BME280;54359;59.124;37.910;2023-02-01T06:35:21;98351.97;;;-0.34;84.85
67517;BME280;54359;59.124;37.910;2023-02-01T06:37:48;98353.06;;;-0.25;85.13
67517;BME280;54359;59.124;37.910;2023-02-01T06:40:20;98350.50;;;-0.26;84.56
67517;BME280;54359;59.124;37.910;2023-02-01T06:42:48;98358.31;;;-0.17;84.66
67517;BME280;54359;59.124;37.910;2023-02-01T06:45:24;98320.56;;;-0.44;84.47
67517;BME280;54359;59.124;37.910;2023-02-01T06:47:59;98344.28;;;-0.37;84.35
67517;BME280;54359;59.124;37.910;2023-02-01T06:50:28;98369.84;;;-0.27;84.56
67517;BME280;54359;59.124;37.910;2023-02-01T06:52:56;98361.28;;;-0.32;84.71
67517;BME280;54359;59.124;37.910;2023-02-01T06:55:22;98368.06;;;-0.31;84.51
67517;BME280;54359;59.124;37.910;2023-02-01T06:57:54;98377.31;;;-0.30;84.65
67517;BME280;54359;59.124;37.910;2023-02-01T07:00:22;98367.06;;;-0.36;84.93
67517;BME280;54359;59.124;37.910;2023-02-01T07:02:53;98317.53;;;-0.63;85.35
67517;BME280;54359;59.124;37.910;2023-02-01T07:05:49;98377.25;;;-0.33;84.93
67517;BME280;54359;59.124;37.910;2023-02-01T07:08:23;98373.13;;;-0.29;84.95
67517;BME280;54359;59.124;37.910;2023-02-01T07:11:14;98384.28;;;-0.21;85.01
67517;BME280;54359;59.124;37.910;2023-02-01T07:14:38;98393.66;;;-0.17;84.91
67517;BME280;54359;59.124;37.910;2023-02-01T07:17:12;98344.22;;;-0.41;85.11
67517;BME280;54359;59.124;37.910;2023-02-01T07:19:49;98391.22;;;-0.14;84.77
67517;BME280;54359;59.124;37.910;2023-02-01T07:22:18;98375.69;;;-0.28;84.99
67517;BME280;54359;59.124;37.910;2023-02-01T07:24:49;98378.38;;;-0.22;84.80
67517;BME280;54359;59.124;37.910;2023-02-01T07:27:46;98366.09;;;-0.41;84.60
67517;BME280;54359;59.124;37.910;2023-02-01T07:30:18;98383.88;;;-0.36;84.68
67517;BME280;54359;59.124;37.910;2023-02-01T07:32:59;98407.72;;;-0.27;85.12
67517;BME280;54359;59.124;37.910;2023-02-01T07:35:32;98391.34;;;-0.39;85.08
67517;BME280;54359;59.124;37.910;2023-02-01T07:38:05;98405.16;;;-0.28;84.51
67517;BME280;54359;59.124;37.910;2023-02-01T07:40:32;98401.69;;;-0.32;84.85
67517;BME280;54359;59.124;37.910;2023-02-01T07:43:28;98379.50;;;-0.42;84.67
67517;BME280;54359;59.124;37.910;2023-02-01T07:45:55;98395.72;;;-0.34;84.89
67517;BME280;54359;59.124;37.910;2023-02-01T07:48:31;98422.31;;;-0.16;84.90
67517;BME280;54359;59.124;37.910;2023-02-01T07:51:04;98421.53;;;-0.14;84.56
67517;BME280;54359;59.124;37.910;2023-02-01T07:53:32;98411.31;;;-0.18;84.69
67517;BME280;54359;59.124;37.910;2023-02-01T07:55:59;98398.69;;;-0.18;84.52
67517;BME280;54359;59.124;37.910;2023-02-01T07:58:27;98420.84;;;-0.08;84.67
67517;BME280;54359;59.124;37.910;2023-02-01T08:00:55;98384.28;;;-0.21;84.72
67517;BME280;54359;59.124;37.910;2023-02-01T08:03:52;98417.78;;;0.04;84.68
67517;BME280;54359;59.124;37.910;2023-02-01T08:06:26;98405.13;;;0.02;84.77
67517;BME280;54359;59.124;37.910;2023-02-01T08:09:00;98414.41;;;0.03;84.51
67517;BME280;54359;59.124;37.910;2023-02-01T08:11:34;98406.94;;;0.06;84.58
67517;BME280;54359;59.124;37.910;2023-02-01T08:14:04;98419.75;;;0.14;84.32
67517;BME280;54359;59.124;37.910;2023-02-01T08:16:32;98429.31;;;0.26;84.60
67517;BME280;54359;59.124;37.910;2023-02-01T08:19:04;98425.94;;;0.25;84.46
67517;BME280;54359;59.124;37.910;2023-02-01T08:21:34;98416.63;;;0.24;84.88
67517;BME280;54359;59.124;37.910;2023-02-01T08:24:08;98427.63;;;0.25;84.64
67517;BME280;54359;59.124;37.910;2023-02-01T08:26:49;98403.69;;;0.12;84.75
67517;BME280;54359;59.124;37.910;2023-02-01T08:29:18;98387.56;;;0.07;84.22
67517;BME280;54359;59.124;37.910;2023-02-01T08:31:44;98444.91;;;0.41;84.16
67517;BME280;54359;59.124;37.910;2023-02-01T08:34:12;98414.94;;;0.23;84.58
67517;BME280;54359;59.124;37.910;2023-02-01T08:36:41;98425.38;;;0.35;84.48
67517;BME280;54359;59.124;37.910;2023-02-01T08:39:14;98431.22;;;0.33;84.46
67517;BME280;54359;59.124;37.910;2023-02-01T08:41:40;98444.03;;;0.40;84.32
67517;BME280;54359;59.124;37.910;2023-02-01T08:44:07;98431.13;;;0.30;84.66
67517;BME280;54359;59.124;37.910;2023-02-01T08:46:33;98443.13;;;0.38;84.34
67517;BME280;54359;59.124;37.910;2023-02-01T08:48:59;98443.28;;;0.45;84.96
67517;BME280;54359;59.124;37.910;2023-02-01T08:51:33;98430.50;;;0.38;84.89
67517;BME280;54359;59.124;37.910;2023-02-01T08:54:02;98441.59;;;0.44;84.46
67517;BME280;54359;59.124;37.910;2023-02-01T08:56:30;98410.06;;;0.29;84.67
67517;BME280;54359;59.124;37.910;2023-02-01T08:58:58;98430.66;;;0.45;84.23
67517;BME280;54359;59.124;37.910;2023-02-01T09:01:26;98437.03;;;0.64;84.33
67517;BME280;54359;59.124;37.910;2023-02-01T09:03:56;98458.47;;;0.78;84.60
67517;BME280;54359;59.124;37.910;2023-02-01T09:06:36;98456.03;;;0.83;84.10
67517;BME280;54359;59.124;37.910;2023-02-01T09:09:11;98450.94;;;0.81;84.50
67517;BME280;54359;59.124;37.910;2023-02-01T09:11:41;98425.44;;;0.72;84.39
67517;BME280;54359;59.124;37.910;2023-02-01T09:14:25;98416.13;;;0.71;83.92
67517;BME280;54359;59.124;37.910;2023-02-01T09:17:17;98442.59;;;0.85;83.33
67517;BME280;54359;59.124;37.910;2023-02-01T09:20:18;98459.66;;;0.92;83.56
67517;BME280;54359;59.124;37.910;2023-02-01T09:22:58;98428.81;;;0.72;83.79
67517;BME280;54359;59.124;37.910;2023-02-01T09:26:04;98456.91;;;0.83;83.58
67517;BME280;54359;59.124;37.910;2023-02-01T09:28:53;98456.09;;;0.86;83.76
67517;BME280;54359;59.124;37.910;2023-02-01T09:31:48;98460.59;;;0.97;84.61
67517;BME280;54359;59.124;37.910;2023-02-01T09:34:23;98469.28;;;1.07;84.04
67517;BME280;54359;59.124;37.910;2023-02-01T09:37:56;98449.78;;;1.03;83.82
67517;BME280;54359;59.124;37.910;2023-02-01T09:40:29;98470.31;;;1.15;83.87
67517;BME280;54359;59.124;37.910;2023-02-01T09:43:21;98473.78;;;1.20;83.41
67517;BME280;54359;59.124;37.910;2023-02-01T09:48:56;98451.44;;;1.01;84.05
67517;BME280;54359;59.124;37.910;2023-02-01T09:51:48;98429.78;;;0.77;83.66
67517;BME280;54359;59.124;37.910;2023-02-01T09:54:22;98455.25;;;0.85;83.89
67517;BME280;54359;59.124;37.910;2023-02-01T09:57:24;98458.09;;;0.97;84.23
67517;BME280;54359;59.124;37.910;2023-02-01T10:00:16;98482.94;;;1.14;84.26
67517;BME280;54359;59.124;37.910;2023-02-01T10:02:46;98442.84;;;0.94;83.55
67517;BME280;54359;59.124;37.910;2023-02-01T10:05:15;98449.66;;;0.97;83.72
67517;BME280;54359;59.124;37.910;2023-02-01T10:08:31;98471.03;;;1.10;83.89
67517;BME280;54359;59.124;37.910;2023-02-01T10:10:54;98491.47;;;1.17;83.48
67517;BME280;54359;59.124;37.910;2023-02-01T10:16:31;98478.41;;;1.02;83.71
67517;BME280;54359;59.124;37.910;2023-02-01T10:19:15;98480.75;;;0.93;83.60
67517;BME280;54359;59.124;37.910;2023-02-01T10:22:07;98490.22;;;1.02;84.21
67517;BME280;54359;59.124;37.910;2023-02-01T10:27:37;98462.06;;;0.88;84.12
67517;BME280;54359;59.124;37.910;2023-02-01T10:30:16;98494.03;;;1.19;83.87
67517;BME280;54359;59.124;37.910;2023-02-01T10:32:43;98481.28;;;1.16;83.49
67517;BME280;54359;59.124;37.910;2023-02-01T10:35:24;98493.28;;;1.25;84.12
67517;BME280;54359;59.124;37.910;2023-02-01T10:37:52;98455.06;;;1.12;83.46
67517;BME280;54359;59.124;37.910;2023-02-01T10:40:22;98472.94;;;1.20;84.00
67517;BME280;54359;59.124;37.910;2023-02-01T10:42:57;98489.31;;;1.34;84.08
67517;BME280;54359;59.124;37.910;2023-02-01T10:45:29;98474.13;;;1.34;83.78
67517;BME280;54359;59.124;37.910;2023-02-01T10:47:57;98472.44;;;1.35;84.00
67517;BME280;54359;59.124;37.910;2023-02-01T10:50:40;98492.28;;;1.54;83.76
67517;BME280;54359;59.124;37.910;2023-02-01T10:55:41;98457.25;;;1.35;83.91
67517;BME280;54359;59.124;37.910;2023-02-01T11:00:48;98468.13;;;1.29;83.74
67517;BME280;54359;59.124;37.910;2023-02-01T11:03:34;98497.88;;;1.39;83.83
67517;BME280;54359;59.124;37.910;2023-02-01T11:06:09;98497.69;;;1.32;83.78
67517;BME280;54359;59.124;37.910;2023-02-01T11:08:45;98467.56;;;1.06;83.60
67517;BME280;54359;59.124;37.910;2023-02-01T11:11:12;98501.69;;;1.22;83.22
67517;BME280;54359;59.124;37.910;2023-02-01T11:13:39;98455.22;;;0.84;83.16
67517;BME280;54359;59.124;37.910;2023-02-01T11:16:06;98466.31;;;0.89;82.94
67517;BME280;54359;59.124;37.910;2023-02-01T11:18:37;98511.44;;;1.07;83.37
67517;BME280;54359;59.124;37.910;2023-02-01T11:21:05;98471.19;;;0.81;83.17
67517;BME280;54359;59.124;37.910;2023-02-01T11:23:32;98480.66;;;0.88;83.16
67517;BME280;54359;59.124;37.910;2023-02-01T11:26:07;98488.53;;;1.02;83.70
67517;BME280;54359;59.124;37.910;2023-02-01T11:28:43;98508.94;;;1.08;83.79
67517;BME280;54359;59.124;37.910;2023-02-01T11:31:44;98503.81;;;1.05;83.22
67517;BME280;54359;59.124;37.910;2023-02-01T11:34:24;98505.22;;;0.94;83.49
67517;BME280;54359;59.124;37.910;2023-02-01T11:36:55;98458.28;;;0.70;83.64
67517;BME280;54359;59.124;37.910;2023-02-01T11:39:31;98480.66;;;0.90;83.41
67517;BME280;54359;59.124;37.910;2023-02-01T11:42:16;98510.66;;;1.09;83.78
67517;BME280;54359;59.124;37.910;2023-02-01T11:44:45;98511.41;;;1.05;83.12
67517;BME280;54359;59.124;37.910;2023-02-01T11:47:28;98461.00;;;0.78;83.74
67517;BME280;54359;59.124;37.910;2023-02-01T11:50:00;98526.59;;;1.05;83.29
67517;BME280;54359;59.124;37.910;2023-02-01T12:18:28;98562.91;;;0.74;83.24
67517;BME280;54359;59.124;37.910;2023-02-01T12:24:35;98527.44;;;0.40;83.17
67517;BME280;54359;59.124;37.910;2023-02-01T12:46:41;98566.59;;;0.55;83.08
67517;BME280;54359;59.124;37.910;2023-02-01T12:51:46;98566.63;;;0.56;83.61
67517;BME280;54359;59.124;37.910;2023-02-01T12:54:50;98557.97;;;0.48;83.50
67517;BME280;54359;59.124;37.910;2023-02-01T12:57:34;98540.59;;;0.29;83.15
67517;BME280;54359;59.124;37.910;2023-02-01T13:00:35;98579.06;;;0.49;83.35
67517;BME280;54359;59.124;37.910;2023-02-01T13:03:37;98570.72;;;0.51;83.56
67517;BME280;54359;59.124;37.910;2023-02-01T13:06:18;98569.66;;;0.45;83.26
67517;BME280;54359;59.124;37.910;2023-02-01T13:09:38;98582.47;;;0.49;82.89
67517;BME280;54359;59.124;37.910;2023-02-01T13:12:17;98564.44;;;0.38;82.99
67517;BME280;54359;59.124;37.910;2023-02-01T13:15:02;98565.94;;;0.32;83.28
67517;BME280;54359;59.124;37.910;2023-02-01T13:17:38;98564.09;;;0.26;82.87
67517;BME280;54359;59.124;37.910;2023-02-01T13:20:39;98558.81;;;0.17;82.95
67517;BME280;54359;59.124;37.910;2023-02-01T13:23:18;98559.47;;;0.11;82.68
67517;BME280;54359;59.124;37.910;2023-02-01T13:26:08;98596.38;;;0.35;83.04
67517;BME280;54359;59.124;37.910;2023-02-01T13:34:49;98589.41;;;0.28;83.19
67517;BME280;54359;59.124;37.910;2023-02-01T13:43:01;98602.09;;;0.29;83.41
67517;BME280;54359;59.124;37.910;2023-02-01T13:45:44;98601.22;;;0.27;83.42
67517;BME280;54359;59.124;37.910;2023-02-01T13:51:00;98604.53;;;0.26;83.17
67517;BME280;54359;59.124;37.910;2023-02-01T13:53:37;98598.69;;;0.27;83.29
67517;BME280;54359;59.124;37.910;2023-02-01T13:56:19;98608.84;;;0.29;82.95
67517;BME280;54359;59.124;37.910;2023-02-01T13:59:51;98609.75;;;0.32;82.89
67517;BME280;54359;59.124;37.910;2023-02-01T14:02:47;98626.00;;;0.39;83.34
67517;BME280;54359;59.124;37.910;2023-02-01T14:06:59;98626.88;;;0.41;83.60
67517;BME280;54359;59.124;37.910;2023-02-01T14:09:32;98625.16;;;0.40;83.36
67517;BME280;54359;59.124;37.910;2023-02-01T14:15:36;98627.63;;;0.37;82.85
67517;BME280;54359;59.124;37.910;2023-02-01T14:21:34;98640.06;;;0.31;83.08
67517;BME280;54359;59.124;37.910;2023-02-01T14:24:33;98614.28;;;0.14;83.08
67517;BME280;54359;59.124;37.910;2023-02-01T14:27:21;98644.25;;;0.30;83.51
67517;BME280;54359;59.124;37.910;2023-02-01T14:29:58;98626.06;;;0.13;82.86
67517;BME280;54359;59.124;37.910;2023-02-01T14:32:38;98651.97;;;0.35;83.45
67517;BME280;54359;59.124;37.910;2023-02-01T14:35:18;98645.31;;;0.38;83.35
67517;BME280;54359;59.124;37.910;2023-02-01T14:37:46;98653.06;;;0.43;83.13
67517;BME280;54359;59.124;37.910;2023-02-01T14:40:20;98647.06;;;0.39;83.20
67517;BME280;54359;59.124;37.910;2023-02-01T14:42:52;98661.72;;;0.51;83.60
67517;BME280;54359;59.124;37.910;2023-02-01T14:50:34;98667.09;;;0.62;83.13
67517;BME280;54359;59.124;37.910;2023-02-01T14:56:14;98663.47;;;0.54;83.21
67517;BME280;54359;59.124;37.910;2023-02-01T14:59:14;98649.66;;;0.43;82.87
67517;BME280;54359;59.124;37.910;2023-02-01T15:01:55;98660.66;;;0.45;82.94
67517;BME280;54359;59.124;37.910;2023-02-01T15:04:25;98635.91;;;0.33;82.91
67517;BME280;54359;59.124;37.910;2023-02-01T15:07:04;98669.38;;;0.54;83.42
67517;BME280;54359;59.124;37.910;2023-02-01T15:09:39;98670.22;;;0.53;82.77
67517;BME280;54359;59.124;37.910;2023-02-01T15:12:23;98676.78;;;0.48;83.27
67517;BME280;54359;59.124;37.910;2023-02-01T15:15:20;98674.25;;;0.48;83.23
67517;BME280;54359;59.124;37.910;2023-02-01T15:17:58;98671.56;;;0.42;82.62
67517;BME280;54359;59.124;37.910;2023-02-01T15:20:32;98665.34;;;0.31;82.60
67517;BME280;54359;59.124;37.910;2023-02-01T15:25:29;98676.44;;;0.36;82.75
67517;BME280;54359;59.124;37.910;2023-02-01T15:28:05;98669.34;;;0.24;82.48
67517;BME280;54359;59.124;37.910;2023-02-01T15:30:54;98670.16;;;0.23;82.81
67517;BME280;54359;59.124;37.910;2023-02-01T15:33:24;98675.88;;;0.17;82.93
67517;BME280;54359;59.124;37.910;2023-02-01T15:35:56;98676.72;;;0.18;83.11
67517;BME280;54359;59.124;37.910;2023-02-01T15:41:22;98682.75;;;0.22;82.75
67517;BME280;54359;59.124;37.910;2023-02-01T15:46:38;98673.41;;;0.19;83.06
67517;BME280;54359;59.124;37.910;2023-02-01T15:49:25;98685.41;;;0.26;82.77
67517;BME280;54359;59.124;37.910;2023-02-01T15:51:54;98679.19;;;0.15;82.67
67517;BME280;54359;59.124;37.910;2023-02-01T15:57:03;98695.19;;;0.15;82.88
67517;BME280;54359;59.124;37.910;2023-02-01T15:59:41;98678.94;;;0.07;82.95